New Orleans, Louisiana
Traffic Map
Current Weather Conditions
New Orleans, Louisiana
Scattered Clouds
Scattered Clouds
88°
Feels Like: 90°
Wind Chill: 88° Ceiling: Unl
Heat Index: 90° Visibility: 10mi
Dew Point: 66° Wind: 7mph
Humidity: 49% Direction: 160° (SSE)
Pressure: 30in Gusts: 0mph
Raw Report DataK7N0 292335Z AUTO 16006KT 10SM SCT060 31/19 A3000 RMK AO1
Traffic Incident Summary
Active as of:
Severity:
Category:
InformationThere was an issue retrieving the traffic information for this location. Please try a different location or try again shortly.
Advertisements
Track Severe Weather on mobile